createdAt,value
2023-04-15T00:07:33.232Z,8.73
2023-04-15T00:22:39.982Z,8.78
2023-04-15T00:37:46.393Z,8.68
2023-04-15T00:52:52.235Z,8.49
2023-04-15T01:07:58.014Z,8.32
2023-04-15T01:23:04.738Z,8.31
2023-04-15T01:38:11.998Z,8.24
2023-04-15T01:53:17.655Z,8.07
2023-04-15T02:08:23.509Z,8.06
2023-04-15T02:23:29.266Z,8.00
2023-04-15T02:38:34.955Z,8.06
2023-04-15T02:53:40.578Z,8.09
2023-04-15T03:08:46.370Z,8.04
2023-04-15T03:23:52.201Z,7.90
2023-04-15T03:38:58.408Z,7.73
2023-04-15T03:54:04.403Z,7.50
2023-04-15T04:09:13.149Z,7.33
2023-04-15T04:24:18.657Z,7.43
2023-04-15T04:39:28.254Z,7.03
2023-04-15T04:54:36.330Z,7.12
2023-04-15T05:09:44.975Z,7.16
2023-04-15T05:24:59.909Z,7.23
2023-04-15T05:40:08.265Z,7.05
2023-04-15T05:55:14.885Z,7.38
2023-04-15T06:10:27.033Z,7.46
2023-04-15T06:40:58.006Z,7.50
2023-04-15T06:56:07.575Z,7.75
2023-04-15T07:11:13.652Z,7.79
2023-04-15T07:26:20.683Z,8.04
2023-04-15T07:41:26.887Z,8.45
2023-04-15T07:56:32.907Z,9.08
2023-04-15T08:11:38.701Z,9.33
2023-04-15T08:26:44.399Z,9.47
2023-04-15T08:41:53.834Z,9.99
2023-04-15T08:57:00.025Z,9.77
2023-04-15T09:12:05.761Z,10.30
2023-04-15T09:27:11.389Z,10.52
2023-04-15T09:42:17.877Z,10.31
2023-04-15T09:57:23.896Z,10.48
2023-04-15T10:12:30.163Z,10.09
2023-04-15T10:27:36.120Z,10.21
2023-04-15T10:42:41.842Z,10.34
2023-04-15T10:57:47.425Z,10.73
2023-04-15T11:12:55.281Z,10.35
2023-04-15T11:28:02.245Z,10.82
2023-04-15T11:43:09.388Z,11.15
2023-04-15T11:58:17.634Z,11.42
2023-04-15T12:13:24.101Z,11.98
2023-04-15T12:28:33.093Z,12.29
2023-04-15T12:43:38.692Z,12.17
2023-04-15T12:58:44.682Z,12.44
2023-04-15T13:13:50.560Z,13.03
2023-04-15T13:28:56.532Z,12.91
2023-04-15T13:44:02.372Z,12.60
2023-04-15T13:59:08.970Z,11.75
2023-04-15T14:14:16.278Z,12.36
2023-04-15T14:29:22.207Z,12.31
2023-04-15T14:44:27.692Z,13.11
2023-04-15T14:59:33.219Z,13.98
2023-04-15T15:14:38.648Z,14.00
2023-04-15T15:29:44.311Z,14.47
2023-04-15T15:44:50.346Z,14.41
2023-04-15T16:00:10.581Z,13.96
2023-04-15T16:15:17.968Z,14.13
2023-04-15T16:30:23.577Z,13.50
2023-04-15T16:45:29.183Z,13.43
2023-04-15T17:00:36.922Z,13.16
2023-04-15T17:15:42.557Z,12.25
2023-04-15T17:30:48.257Z,11.88
2023-04-15T17:45:54.364Z,11.63
2023-04-15T18:00:59.949Z,11.30
2023-04-15T18:16:06.594Z,11.00
2023-04-15T18:31:12.226Z,10.75
2023-04-15T18:46:19.182Z,10.72
2023-04-15T19:01:24.812Z,10.63
2023-04-15T19:16:30.987Z,10.56
2023-04-15T19:31:36.685Z,10.48
2023-04-15T19:46:44.388Z,10.39
2023-04-15T20:01:50.058Z,10.23
2023-04-15T20:16:55.806Z,10.22
2023-04-15T20:32:01.359Z,9.94
2023-04-15T20:47:07.428Z,9.77
2023-04-15T21:02:13.389Z,9.67
2023-04-15T21:17:19.151Z,9.61
2023-04-15T21:32:24.942Z,9.55
2023-04-15T21:47:30.558Z,9.50
2023-04-15T22:02:38.038Z,9.46
2023-04-15T22:17:43.868Z,9.33
2023-04-15T22:32:49.468Z,9.35
2023-04-15T22:47:55.211Z,9.39
2023-04-15T23:03:00.943Z,9.33
2023-04-15T23:18:06.909Z,9.34
2023-04-15T23:33:12.863Z,9.16
2023-04-15T23:48:18.443Z,9.11
